Hufsmith, Texas
Current Conditions -  °F | °C
As of 12:53 AM on Monday 24 Nov 2014 (Local Time) from KDWH Reporting Station
Clear Clear  
Wind Chill: 61°   Ceiling: Unl
Heat Index: 61°   Visibility: 10mi
Dew Point: 44°   Wind: 10mph
Humidity: 54%   Direction: 330°NNW
Pressure: 29.79"   Gusts: NA
Location:  30.12°N, 95.6°W
Report Text: KDWH 240653Z 33009KT 10SM CLR 16/07 A2979 RMK AO2 SLP084 T01610067
Loading
Personal Weather Stations






























Interactive Weather Map New forecast layout! Learn more

10-Day Weather Forecast

Advertisements
Track Severe Weather on mobile